Time;durP1;ratioP1;P1;durP2;ratioP2;P2;SDS_P1;SDS_P2;PMS_P1;PMS_P2;Temp;Humidity;BMP_temperature;BMP_pressure;BME280_temperature;BME280_humidity;BME280_pressure;Samples;Min_cycle;Max_cycle;Signal;HPM_P1;HPM_P2
2023/05/12 04:32:05;;;;;;;6.30;3.60;;;12.20;75.70;;;;;;5066762;23;20053;-73
2023/05/12 04:34:30;;;;;;;8.50;4.32;;;12.20;75.60;;;;;;4878701;29;20041;-73
2023/05/12 04:36:56;;;;;;;7.03;4.38;;;12.20;75.60;;;;;;4870910;29;20034;-73
2023/05/12 04:39:21;;;;;;;4.72;3.08;;;12.20;75.60;;;;;;4885056;29;20229;-73
2023/05/12 04:41:47;;;;;;;7.50;4.10;;;12.20;75.50;;;;;;4876586;29;20032;-75
2023/05/12 04:44:13;;;;;;;8.20;3.60;;;12.20;76.10;;;;;;4879981;29;20507;-74
2023/05/12 04:46:38;;;;;;;6.97;3.92;;;12.20;75.80;;;;;;4881143;29;20033;-74
2023/05/12 04:49:04;;;;;;;7.07;4.28;;;12.20;75.40;;;;;;4897704;29;20492;-74
2023/05/12 04:51:30;;;;;;;6.63;3.72;;;12.20;75.50;;;;;;4899215;29;20059;-74
2023/05/12 04:53:56;;;;;;;8.18;4.53;;;12.20;75.70;;;;;;4883057;29;20041;-75
2023/05/12 04:56:22;;;;;;;7.25;4.28;;;12.30;75.90;;;;;;4883250;29;20480;-76
2023/05/12 04:58:48;;;;;;;7.20;3.85;;;12.20;75.90;;;;;;4897267;29;20040;-77
2023/05/12 05:01:13;;;;;;;5.90;4.00;;;12.30;75.30;;;;;;4886775;29;20524;-75
2023/05/12 05:03:39;;;;;;;7.88;4.78;;;12.30;75.30;;;;;;4894452;29;20103;-76
2023/05/12 05:06:05;;;;;;;5.43;3.33;;;12.30;75.20;;;;;;4887693;29;20057;-75
2023/05/12 05:08:31;;;;;;;7.78;4.70;;;12.40;75.00;;;;;;4897964;29;20497;-74
2023/05/12 05:10:57;;;;;;;6.75;4.10;;;12.40;74.70;;;;;;4885019;29;20025;-76
2023/05/12 05:13:22;;;;;;;7.93;4.55;;;12.40;74.70;;;;;;4884266;29;20036;-77
2023/05/12 05:15:52;;;;;;;7.13;4.53;;;12.40;74.80;;;;;;4919865;29;20032;-75
2023/05/12 05:18:18;;;;;;;6.03;3.63;;;12.40;75.00;;;;;;4883500;29;20062;-74
2023/05/12 05:20:44;;;;;;;6.75;4.13;;;12.50;75.10;;;;;;4898847;29;20043;-75
2023/05/12 05:23:10;;;;;;;7.13;4.13;;;12.50;74.80;;;;;;4900592;29;20136;-74
2023/05/12 05:25:36;;;;;;;7.55;3.75;;;12.50;75.10;;;;;;4884293;29;20109;-74
2023/05/12 05:28:02;;;;;;;9.13;4.72;;;12.50;74.10;;;;;;4901015;29;20053;-77
2023/05/12 05:30:28;;;;;;;7.32;5.10;;;12.60;75.20;;;;;;4898435;29;20116;-77
2023/05/12 05:32:53;;;;;;;11.52;5.15;;;12.60;75.00;;;;;;4900403;29;20107;-77
2023/05/12 05:35:19;;;;;;;9.45;5.60;;;12.70;74.30;;;;;;4917957;29;20028;-77
2023/05/12 05:37:46;;;;;;;10.43;6.03;;;12.60;74.00;;;;;;4922895;29;20028;-77
2023/05/12 05:40:11;;;;;;;13.20;6.55;;;12.70;74.30;;;;;;4911844;29;20096;-77
2023/05/12 05:42:37;;;;;;;12.10;6.40;;;12.80;74.50;;;;;;4902424;29;20056;-77
2023/05/12 05:45:03;;;;;;;14.38;8.13;;;12.80;74.20;;;;;;4902676;29;20056;-77
2023/05/12 05:47:30;;;;;;;11.20;7.22;;;12.80;74.10;;;;;;4904078;29;20514;-77
2023/05/12 05:49:56;;;;;;;11.82;7.45;;;12.80;73.90;;;;;;4902389;29;20743;-77
2023/05/12 05:52:23;;;;;;;10.95;5.93;;;12.90;73.90;;;;;;4902129;29;20029;-77
2023/05/12 05:54:49;;;;;;;11.75;5.93;;;13.00;74.60;;;;;;4891755;29;20704;-78
2023/05/12 05:57:15;;;;;;;9.07;5.40;;;13.00;74.20;;;;;;4896111;29;20135;-79
2023/05/12 05:59:41;;;;;;;12.20;6.00;;;13.00;73.60;;;;;;4889586;29;20143;-78
2023/05/12 06:02:06;;;;;;;7.85;5.22;;;13.20;74.00;;;;;;4902012;29;20032;-79
2023/05/12 06:04:32;;;;;;;12.23;5.55;;;13.20;73.80;;;;;;4916334;29;20036;-79
2023/05/12 06:06:57;;;;;;;8.40;4.53;;;13.20;74.00;;;;;;4926412;29;20025;-79
2023/05/12 06:09:23;;;;;;;10.07;4.63;;;13.30;73.50;;;;;;4919784;29;20028;-79
2023/05/12 06:11:49;;;;;;;8.90;4.57;;;13.30;73.60;;;;;;4914263;29;20166;-79
2023/05/12 06:14:16;;;;;;;8.90;4.90;;;13.30;73.30;;;;;;4890354;29;20036;-79
2023/05/12 06:16:41;;;;;;;12.43;4.30;;;13.40;73.70;;;;;;4920510;29;20036;-79
2023/05/12 06:19:07;;;;;;;8.88;4.78;;;13.40;73.60;;;;;;4922898;29;20529;-79
2023/05/12 06:21:33;;;;;;;10.70;4.53;;;13.50;73.60;;;;;;4920515;29;20040;-79
2023/05/12 06:23:58;;;;;;;9.90;4.68;;;13.50;73.60;;;;;;4920018;29;20017;-79
2023/05/12 06:26:24;;;;;;;10.93;5.43;;;13.60;73.00;;;;;;4902376;29;20032;-79
2023/05/12 06:28:49;;;;;;;9.52;4.38;;;13.60;72.80;;;;;;4899861;29;20811;-79
2023/05/12 06:31:15;;;;;;;11.65;5.22;;;13.70;73.30;;;;;;4900145;29;20060;-79
2023/05/12 06:33:41;;;;;;;12.35;5.60;;;13.70;73.10;;;;;;4913893;29;20590;-79
2023/05/12 06:36:07;;;;;;;11.40;4.93;;;13.80;73.90;;;;;;4920800;29;20036;-79
2023/05/12 06:38:33;;;;;;;13.07;6.32;;;13.80;74.20;;;;;;4918404;29;20063;-79
2023/05/12 06:40:58;;;;;;;10.25;5.32;;;13.80;73.20;;;;;;4902457;29;20068;-79
2023/05/12 06:43:24;;;;;;;9.95;5.35;;;13.90;74.00;;;;;;4918871;29;20043;-79
2023/05/12 06:45:50;;;;;;;11.35;5.82;;;13.90;73.40;;;;;;4907271;29;20782;-79
2023/05/12 06:48:15;;;;;;;11.02;5.63;;;14.00;72.80;;;;;;4902917;29;20067;-79
2023/05/12 06:50:41;;;;;;;10.07;5.75;;;14.10;73.30;;;;;;4919944;29;20043;-79
2023/05/12 06:53:08;;;;;;;13.60;5.38;;;14.20;73.00;;;;;;4902551;29;20514;-79
2023/05/12 06:55:33;;;;;;;10.80;5.25;;;14.30;73.30;;;;;;4917469;29;20032;-79
2023/05/12 06:57:59;;;;;;;16.73;5.90;;;14.40;73.50;;;;;;4912970;29;20032;-79
2023/05/12 07:00:25;;;;;;;14.15;5.13;;;14.60;72.20;;;;;;4897927;29;20033;-79
2023/05/12 07:02:51;;;;;;;13.25;5.85;;;14.80;72.40;;;;;;4893485;29;20028;-79
2023/05/12 07:05:17;;;;;;;10.30;5.32;;;14.80;72.10;;;;;;4913771;29;20590;-79
2023/05/12 07:07:44;;;;;;;13.18;5.30;;;14.90;72.00;;;;;;4894369;29;20030;-79
2023/05/12 07:10:10;;;;;;;15.25;5.28;;;14.90;72.10;;;;;;4912312;29;20019;-79
2023/05/12 07:12:37;;;;;;;14.65;5.38;;;14.90;71.70;;;;;;4915248;29;20078;-79
2023/05/12 07:15:03;;;;;;;9.25;5.47;;;15.10;71.60;;;;;;4912823;29;20423;-79
2023/05/12 07:17:29;;;;;;;10.70;4.38;;;15.20;71.60;;;;;;4892020;29;20646;-79
2023/05/12 07:19:55;;;;;;;8.57;4.55;;;15.10;72.90;;;;;;4900134;29;20506;-78
2023/05/12 07:22:22;;;;;;;10.73;5.13;;;15.10;72.60;;;;;;4898769;29;20365;-78
2023/05/12 07:24:48;;;;;;;8.57;4.68;;;15.10;72.30;;;;;;4899666;29;20033;-78
2023/05/12 07:27:13;;;;;;;9.80;4.78;;;15.00;72.10;;;;;;4917599;29;20391;-80
2023/05/12 07:29:39;;;;;;;9.35;4.80;;;15.00;73.10;;;;;;4895624;29;20038;-79
2023/05/12 07:32:05;;;;;;;9.80;5.10;;;15.00;72.50;;;;;;4899076;29;20051;-78
2023/05/12 07:34:33;;;;;;;11.00;5.00;;;15.00;72.30;;;;;;4892134;29;20087;-78
2023/05/12 07:37:03;;;;;;;10.98;4.90;;;15.10;72.70;;;;;;4910461;29;20146;-79
2023/05/12 07:39:31;;;;;;;10.65;4.63;;;15.10;72.10;;;;;;4908122;29;20083;-79
2023/05/12 07:41:57;;;;;;;8.60;4.22;;;15.20;72.60;;;;;;4895269;29;20443;-78
2023/05/12 07:44:23;;;;;;;11.50;4.65;;;15.30;72.10;;;;;;4891798;29;20032;-78
2023/05/12 07:46:48;;;;;;;10.48;4.68;;;15.50;71.90;;;;;;4893298;29;20036;-79
2023/05/12 07:49:14;;;;;;;8.85;4.88;;;15.60;71.60;;;;;;4911427;29;20032;-79
2023/05/12 07:51:39;;;;;;;7.68;4.68;;;15.60;71.80;;;;;;4909468;29;20032;-80
2023/05/12 07:54:06;;;;;;;10.13;5.10;;;15.60;71.70;;;;;;4890988;29;20043;-79
2023/05/12 07:56:32;;;;;;;9.43;4.50;;;15.60;71.50;;;;;;4898098;29;20032;-81
2023/05/12 07:58:58;;;;;;;9.52;4.55;;;16.30;70.00;;;;;;4900989;29;20036;-80
2023/05/12 08:01:23;;;;;;;10.27;4.85;;;16.60;69.90;;;;;;4894545;29;20032;-79
2023/05/12 08:03:50;;;;;;;8.57;4.55;;;16.60;69.10;;;;;;4905830;29;20038;-79
2023/05/12 08:06:16;;;;;;;8.50;4.57;;;17.40;68.00;;;;;;4912887;29;20031;-79
2023/05/12 08:08:42;;;;;;;9.95;4.85;;;17.20;66.90;;;;;;4912835;29;20036;-79
2023/05/12 08:11:08;;;;;;;8.63;4.20;;;17.20;67.50;;;;;;4894060;29;20024;-79
2023/05/12 08:13:36;;;;;;;5.70;3.80;;;18.80;65.00;;;;;;4896785;29;20048;-79
2023/05/12 08:16:02;;;;;;;8.98;4.63;;;21.70;59.10;;;;;;4912432;29;20494;-80
2023/05/12 08:18:27;;;;;;;7.82;3.33;;;24.40;52.20;;;;;;4892733;29;20032;-79
2023/05/12 08:20:53;;;;;;;8.30;4.03;;;25.70;49.00;;;;;;4895641;29;20047;-80
2023/05/12 08:23:19;;;;;;;6.80;3.78;;;24.50;48.40;;;;;;4897618;29;20028;-80
2023/05/12 08:25:47;;;;;;;11.25;4.00;;;25.10;48.80;;;;;;4898021;29;20032;-80
2023/05/12 08:28:13;;;;;;;8.60;4.50;;;27.20;44.00;;;;;;4894406;29;20111;-80
2023/05/12 08:30:40;;;;;;;7.35;4.70;;;28.80;41.70;;;;;;4895943;29;20052;-81
2023/05/12 08:33:05;;;;;;;6.38;3.83;;;30.20;40.20;;;;;;4891092;29;20033;-78
2023/05/12 08:35:31;;;;;;;7.07;4.15;;;30.60;38.10;;;;;;4911754;29;20511;-78
2023/05/12 08:37:58;;;;;;;8.82;4.63;;;31.20;37.10;;;;;;4901496;29;20063;-78
2023/05/12 08:40:25;;;;;;;6.63;3.55;;;31.60;36.00;;;;;;4895086;29;20037;-78
2023/05/12 08:43:13;;;;;;;7.68;4.03;;;32.20;34.70;;;;;;4894885;29;20072;-77
2023/05/12 08:45:40;;;;;;;5.88;4.18;;;32.60;33.70;;;;;;4892110;29;20096;-78
2023/05/12 08:48:08;;;;;;;6.57;4.45;;;33.00;33.80;;;;;;4898954;29;20083;-79
2023/05/12 08:50:39;;;;;;;8.27;3.60;;;33.40;33.20;;;;;;4918707;29;20032;-79
2023/05/12 08:53:09;;;;;;;6.43;3.28;;;33.50;31.40;;;;;;4919712;29;20526;-79
2023/05/12 08:55:35;;;;;;;6.05;3.42;;;33.80;32.10;;;;;;4907036;29;20025;-78
2023/05/12 08:58:02;;;;;;;5.85;3.35;;;34.00;31.20;;;;;;4918452;29;20048;-79
2023/05/12 09:00:30;;;;;;;5.43;3.00;;;33.90;31.20;;;;;;4903886;29;20490;-79
2023/05/12 09:02:57;;;;;;;6.10;2.72;;;33.90;32.20;;;;;;4919371;29;20033;-79
2023/05/12 09:05:24;;;;;;;6.68;2.65;;;33.50;31.20;;;;;;4904495;29;20028;-79
2023/05/12 09:07:53;;;;;;;10.45;3.55;;;32.00;33.50;;;;;;4900306;29;20024;-79
2023/05/12 09:10:21;;;;;;;6.90;2.58;;;31.40;34.70;;;;;;4919886;29;20043;-78
2023/05/12 09:12:48;;;;;;;6.57;2.45;;;31.30;34.60;;;;;;4918757;29;20527;-79
2023/05/12 09:15:19;;;;;;;3.88;2.10;;;29.70;36.60;;;;;;4921558;29;20060;-78
2023/05/12 09:17:45;;;;;;;5.18;2.30;;;28.00;38.40;;;;;;4902867;29;20024;-78
2023/05/12 09:20:11;;;;;;;7.72;2.08;;;27.10;40.60;;;;;;4920232;29;20448;-79
2023/05/12 09:22:38;;;;;;;5.22;1.58;;;27.60;39.50;;;;;;4920276;29;20071;-78
2023/05/12 09:25:20;;;;;;;4.63;1.52;;;28.80;38.10;;;;;;4903816;29;20028;-79
2023/05/12 09:27:54;;;;;;;6.07;1.10;;;30.10;35.40;;;;;;4916758;29;20028;-78
2023/05/12 09:30:29;;;;;;;4.10;1.17;;;29.80;35.20;;;;;;4903885;29;20091;-79
2023/05/12 09:33:07;;;;;;;6.15;1.20;;;30.00;34.40;;;;;;4899122;29;20389;-79
2023/05/12 09:35:40;;;;;;;3.13;0.90;;;29.50;34.60;;;;;;4903749;29;20036;-79
2023/05/12 09:38:10;;;;;;;3.30;1.02;;;30.70;32.10;;;;;;4919485;29;20032;-79
2023/05/12 09:40:39;;;;;;;2.95;1.08;;;31.70;31.60;;;;;;4903893;29;20024;-79
2023/05/12 09:43:06;;;;;;;3.15;0.98;;;32.00;32.70;;;;;;4917608;29;20020;-80
2023/05/12 09:45:35;;;;;;;2.78;1.80;;;32.60;31.70;;;;;;4917658;29;20025;-79
2023/05/12 09:48:11;;;;;;;2.38;0.95;;;32.20;32.00;;;;;;4900048;29;20028;-79
2023/05/12 09:50:44;;;;;;;3.58;0.93;;;31.80;31.90;;;;;;4900028;29;20033;-79
2023/05/12 09:53:11;;;;;;;4.38;1.00;;;31.80;31.70;;;;;;4919749;29;20035;-78
2023/05/12 09:55:36;;;;;;;4.55;0.77;;;31.80;30.00;;;;;;4901129;29;20020;-78
2023/05/12 09:58:07;;;;;;;5.88;1.00;;;31.60;29.80;;;;;;4919003;29;20039;-79
2023/05/12 10:00:34;;;;;;;3.55;0.70;;;31.50;31.60;;;;;;4919531;29;20403;-78
2023/05/12 10:03:03;;;;;;;3.55;0.93;;;31.60;31.40;;;;;;4920410;29;20067;-78
2023/05/12 10:05:30;;;;;;;3.35;0.80;;;31.70;30.40;;;;;;4920334;29;20380;-78
2023/05/12 10:07:59;;;;;;;4.07;1.13;;;31.80;30.70;;;;;;4895217;29;20055;-80
2023/05/12 10:10:25;;;;;;;;;;;31.80;30.60;;;;;;4921341;29;20031;-77
2023/05/12 10:12:51;;;;;;;4.38;1.10;;;31.60;30.10;;;;;;4913617;29;19997;-76
2023/05/12 10:15:18;;;;;;;1.85;0.85;;;31.50;30.30;;;;;;4909045;29;20058;-76
2023/05/12 10:17:44;;;;;;;6.93;0.95;;;31.40;31.50;;;;;;4913918;29;20506;-77
2023/05/12 10:20:12;;;;;;;7.13;1.55;;;31.40;31.60;;;;;;4903690;29;20029;-76
2023/05/12 10:22:39;;;;;;;3.38;0.80;;;31.10;30.30;;;;;;4901143;29;20025;-79
2023/05/12 10:25:07;;;;;;;2.75;0.80;;;30.70;32.00;;;;;;4901785;29;20494;-77
2023/05/12 10:27:35;;;;;;;1.88;0.52;;;30.50;32.00;;;;;;4900456;29;20035;-77
2023/05/12 10:30:03;;;;;;;1.10;0.32;;;30.10;31.20;;;;;;4910551;29;20088;-78
2023/05/12 10:32:28;;;;;;;2.58;0.65;;;29.30;32.10;;;;;;4883990;29;20052;-76
2023/05/12 10:34:55;;;;;;;1.98;0.50;;;28.60;33.40;;;;;;4915241;29;20084;-77
2023/05/12 10:37:22;;;;;;;2.17;0.57;;;27.90;33.80;;;;;;4886447;29;20679;-77
2023/05/12 10:39:51;;;;;;;4.55;0.50;;;27.40;34.30;;;;;;4901989;29;20036;-75
2023/05/12 10:42:24;;;;;;;1.40;0.50;;;26.80;35.70;;;;;;4932791;29;20028;-80
2023/05/12 10:44:55;;;;;;;2.38;0.57;;;26.30;36.00;;;;;;4916341;29;20036;-77
2023/05/12 10:47:35;;;;;;;3.67;0.75;;;26.00;37.50;;;;;;4922488;29;20030;-76
2023/05/12 10:50:01;;;;;;;4.95;0.63;;;25.80;37.40;;;;;;4916712;29;20040;-76
2023/05/12 10:52:26;;;;;;;2.90;0.80;;;25.60;37.80;;;;;;4901167;29;20513;-77
2023/05/12 10:55:00;;;;;;;6.13;1.00;;;25.60;37.80;;;;;;4902580;29;20085;-75
2023/05/12 10:57:26;;;;;;;1.42;0.47;;;25.40;38.10;;;;;;4901337;29;20016;-74
2023/05/12 10:59:56;;;;;;;3.28;0.70;;;25.30;37.20;;;;;;4917450;29;20096;-74
2023/05/12 11:02:31;;;;;;;4.50;0.95;;;25.00;38.50;;;;;;4902211;29;20030;-74
2023/05/12 11:05:00;;;;;;;2.47;0.88;;;24.90;39.40;;;;;;4917261;29;20032;-75
2023/05/12 11:07:28;;;;;;;4.43;0.57;;;25.00;40.40;;;;;;4900686;29;20461;-74
2023/05/12 11:09:56;;;;;;;1.77;0.77;;;25.00;39.40;;;;;;4898917;29;20107;-74
2023/05/12 11:12:22;;;;;;;2.97;0.85;;;25.10;39.70;;;;;;4900973;29;20156;-74
2023/05/12 11:14:48;;;;;;;2.38;0.93;;;25.10;40.30;;;;;;4898514;29;20047;-74
2023/05/12 11:17:14;;;;;;;3.22;0.70;;;25.10;39.50;;;;;;4902260;29;20032;-74
2023/05/12 11:19:45;;;;;;;1.67;0.70;;;25.00;39.30;;;;;;4900693;29;20031;-76
2023/05/12 11:22:11;;;;;;;1.38;0.55;;;24.90;38.50;;;;;;4900694;29;20024;-76
2023/05/12 11:24:38;;;;;;;3.72;1.40;;;24.80;39.90;;;;;;4919777;29;20107;-76
2023/05/12 11:27:05;;;;;;;2.53;0.70;;;24.70;38.70;;;;;;4913291;29;20075;-76
2023/05/12 11:29:31;;;;;;;1.77;0.90;;;24.50;39.50;;;;;;4918550;29;20452;-76
2023/05/12 11:31:59;;;;;;;2.33;0.88;;;24.60;39.10;;;;;;4917478;29;20076;-76
2023/05/12 11:34:26;;;;;;;2.95;0.98;;;24.60;38.80;;;;;;4912445;29;20040;-76
2023/05/12 11:36:54;;;;;;;1.55;0.70;;;24.50;39.40;;;;;;4905193;29;20107;-77
2023/05/12 11:39:26;;;;;;;1.65;1.05;;;24.40;38.30;;;;;;4919475;29;20518;-77
2023/05/12 11:41:52;;;;;;;2.65;0.90;;;24.30;37.90;;;;;;4910093;29;20036;-77
2023/05/12 11:44:20;;;;;;;3.58;1.30;;;24.20;39.00;;;;;;4901959;29;20095;-77
2023/05/12 11:47:10;;;;;;;1.48;0.63;;;24.00;39.20;;;;;;4911688;29;20036;-77
2023/05/12 11:49:49;;;;;;;4.63;0.80;;;23.90;39.70;;;;;;4909789;29;20040;-77
2023/05/12 11:52:15;;;;;;;3.30;1.00;;;23.70;40.40;;;;;;4911759;29;20051;-77
2023/05/12 11:54:59;;;;;;;3.60;1.08;;;23.50;41.00;;;;;;4902444;29;20032;-77
2023/05/12 11:57:32;;;;;;;1.20;0.77;;;23.70;40.80;;;;;;4912346;29;20024;-77
2023/05/12 12:00:06;;;;;;;3.50;0.88;;;23.80;40.80;;;;;;4915854;29;20024;-77
2023/05/12 12:02:32;;;;;;;2.72;0.95;;;24.10;40.90;;;;;;4915839;29;20499;-77
2023/05/12 12:04:59;;;;;;;4.95;1.00;;;23.90;40.40;;;;;;4907758;29;20128;-77
2023/05/12 12:07:30;;;;;;;4.05;1.10;;;23.80;40.40;;;;;;4918372;29;20087;-76
2023/05/12 12:09:56;;;;;;;3.63;1.40;;;23.70;40.30;;;;;;4915991;29;20036;-76
2023/05/12 12:12:22;;;;;;;4.55;1.52;;;23.70;40.80;;;;;;4915643;29;21118;-76
2023/05/12 12:14:47;;;;;;;4.00;1.42;;;23.80;41.00;;;;;;4886084;29;20062;-77
2023/05/12 12:17:13;;;;;;;4.03;1.23;;;23.90;41.20;;;;;;4901491;29;20032;-76
2023/05/12 12:19:38;;;;;;;5.55;1.20;;;24.10;40.80;;;;;;4920155;29;20043;-77
2023/05/12 12:22:04;;;;;;;3.60;1.23;;;24.10;41.60;;;;;;4917695;29;20033;-76
2023/05/12 12:24:30;;;;;;;2.97;0.88;;;24.00;40.90;;;;;;4901657;29;20036;-76
2023/05/12 12:26:56;;;;;;;2.70;1.10;;;23.80;41.60;;;;;;4907246;29;20040;-76
2023/05/12 12:29:23;;;;;;;4.53;1.15;;;23.60;41.80;;;;;;4903791;29;20041;-77
2023/05/12 12:31:49;;;;;;;4.82;1.23;;;23.60;42.60;;;;;;4899758;29;20104;-76
2023/05/12 12:34:15;;;;;;;2.85;0.90;;;23.60;42.30;;;;;;4920772;29;20036;-76
2023/05/12 12:36:40;;;;;;;5.57;1.10;;;23.60;42.10;;;;;;4918733;29;20028;-77
2023/05/12 12:39:06;;;;;;;3.22;1.17;;;23.70;42.10;;;;;;4918010;29;20547;-77
2023/05/12 12:41:32;;;;;;;3.25;1.42;;;23.70;43.10;;;;;;4915713;29;20035;-77
2023/05/12 12:43:58;;;;;;;3.45;0.95;;;23.70;42.30;;;;;;4919761;29;20040;-77
2023/05/12 12:46:25;;;;;;;3.20;0.90;;;23.70;42.00;;;;;;4920998;29;20092;-77
2023/05/12 12:48:50;;;;;;;4.53;1.17;;;23.80;41.50;;;;;;4922231;29;20147;-76
2023/05/12 12:51:16;;;;;;;3.42;1.20;;;23.90;41.10;;;;;;4920019;29;20047;-77
2023/05/12 12:53:44;;;;;;;5.30;1.13;;;24.00;41.80;;;;;;4904545;29;20036;-77
2023/05/12 12:56:10;;;;;;;2.35;0.95;;;23.90;40.70;;;;;;4921235;29;20025;-77
2023/05/12 12:58:36;;;;;;;3.40;1.10;;;23.80;42.20;;;;;;4919190;29;20518;-77
2023/05/12 13:01:02;;;;;;;2.13;0.95;;;23.50;43.00;;;;;;4921491;29;20078;-77
2023/05/12 13:03:28;;;;;;;3.45;1.10;;;23.40;43.10;;;;;;4921168;29;20028;-77
2023/05/12 13:05:54;;;;;;;2.92;1.17;;;23.30;42.80;;;;;;4909821;29;20039;-77
2023/05/12 13:08:20;;;;;;;5.63;1.80;;;23.30;43.80;;;;;;4907351;29;20023;-77
2023/05/12 13:10:45;;;;;;;4.05;1.23;;;23.30;44.20;;;;;;4917984;29;20024;-76
2023/05/12 13:13:11;;;;;;;4.05;1.23;;;23.30;44.90;;;;;;4914838;29;20055;-77
2023/05/12 13:15:37;;;;;;;4.82;1.40;;;23.10;44.20;;;;;;4921336;29;20024;-78
2023/05/12 13:18:03;;;;;;;2.72;1.27;;;23.20;44.80;;;;;;4921082;29;20035;-78
2023/05/12 13:20:29;;;;;;;3.72;1.30;;;23.30;45.10;;;;;;4918988;29;20565;-77
2023/05/12 13:22:55;;;;;;;3.20;1.10;;;23.20;45.20;;;;;;4921198;29;20056;-78
2023/05/12 13:25:20;;;;;;;4.50;1.35;;;23.30;45.20;;;;;;4919587;29;20063;-77
2023/05/12 13:27:46;;;;;;;4.82;1.83;;;23.30;44.80;;;;;;4921361;29;20088;-77
2023/05/12 13:30:12;;;;;;;3.20;1.20;;;23.30;44.60;;;;;;4921301;29;20043;-77
2023/05/12 13:32:38;;;;;;;2.13;1.35;;;23.30;44.90;;;;;;4929563;29;20040;-77
2023/05/12 13:35:04;;;;;;;5.50;1.73;;;23.50;45.40;;;;;;4914192;29;20023;-77
2023/05/12 13:37:29;;;;;;;3.20;1.15;;;23.40;45.90;;;;;;4920496;29;20067;-77
2023/05/12 13:39:55;;;;;;;2.58;1.40;;;23.30;44.70;;;;;;4919070;29;20028;-77
2023/05/12 13:42:21;;;;;;;3.20;1.20;;;23.20;44.30;;;;;;4919758;29;20047;-77
2023/05/12 13:44:48;;;;;;;2.45;1.48;;;23.30;44.20;;;;;;4903751;29;20028;-77
2023/05/12 13:47:14;;;;;;;3.05;1.40;;;23.40;43.80;;;;;;4916098;29;20410;-77
2023/05/12 13:49:40;;;;;;;2.28;1.20;;;23.50;44.20;;;;;;4920837;29;20020;-77
2023/05/12 13:52:06;;;;;;;2.83;1.20;;;23.50;43.70;;;;;;4918347;29;20116;-77
2023/05/12 13:54:32;;;;;;;1.40;0.90;;;23.60;43.70;;;;;;4932007;29;20024;-77
2023/05/12 13:56:58;;;;;;;6.32;1.83;;;23.70;43.90;;;;;;4902837;29;20083;-77
2023/05/12 13:59:23;;;;;;;5.40;2.67;;;23.80;44.10;;;;;;4905461;29;20024;-77
2023/05/12 14:01:49;;;;;;;2.45;1.00;;;23.80;42.40;;;;;;4920058;29;20028;-77
2023/05/12 14:04:15;;;;;;;3.88;1.33;;;23.70;42.00;;;;;;4918063;29;20056;-77
2023/05/12 14:06:41;;;;;;;3.53;1.30;;;23.50;42.80;;;;;;4920734;29;20479;-77
2023/05/12 14:09:06;;;;;;;6.07;1.88;;;23.20;44.20;;;;;;4914925;29;20028;-77
2023/05/12 14:11:33;;;;;;;3.75;2.03;;;22.70;45.50;;;;;;4916675;29;20039;-77
2023/05/12 14:13:59;;;;;;;4.45;1.85;;;22.30;47.10;;;;;;4899187;29;20056;-77
2023/05/12 14:16:26;;;;;;;3.47;2.00;;;22.00;48.40;;;;;;4920584;29;20032;-77
2023/05/12 14:18:52;;;;;;;4.50;2.40;;;21.80;49.00;;;;;;4914241;29;20028;-77
2023/05/12 14:21:18;;;;;;;5.65;1.92;;;21.70;49.60;;;;;;4899323;29;20506;-77
2023/05/12 14:23:46;;;;;;;4.93;1.83;;;21.50;49.70;;;;;;4920869;29;20115;-76
2023/05/12 14:26:12;;;;;;;4.22;1.83;;;21.50;50.00;;;;;;4915607;29;20036;-77
2023/05/12 14:28:38;;;;;;;7.53;2.47;;;21.50;50.40;;;;;;4901679;29;20032;-77
2023/05/12 14:31:04;;;;;;;5.22;2.25;;;21.40;50.00;;;;;;4901447;29;20060;-77
2023/05/12 14:33:30;;;;;;;6.90;2.95;;;21.40;50.00;;;;;;4904315;29;20056;-77
2023/05/12 14:35:56;;;;;;;9.27;2.97;;;21.30;50.60;;;;;;4908008;29;20114;-76
2023/05/12 14:38:22;;;;;;;6.68;3.05;;;21.30;50.90;;;;;;4938651;29;20055;-77
2023/05/12 14:40:50;;;;;;;7.65;3.22;;;21.20;51.00;;;;;;4933912;29;20028;-77
2023/05/12 14:43:16;;;;;;;6.60;3.72;;;21.20;51.20;;;;;;4901527;29;20028;-79
2023/05/12 14:45:42;;;;;;;8.43;4.13;;;21.10;51.80;;;;;;4919704;29;20036;-77
2023/05/12 14:48:12;;;;;;;11.65;4.38;;;21.00;52.30;;;;;;4918766;29;20108;-77
2023/05/12 14:50:38;;;;;;;8.93;3.60;;;21.10;52.80;;;;;;4902321;29;20040;-75
2023/05/12 14:53:03;;;;;;;13.82;4.60;;;21.00;52.90;;;;;;4920058;29;20511;-76
2023/05/12 14:55:29;;;;;;;7.80;3.47;;;21.10;53.10;;;;;;4898660;29;20164;-83
2023/05/12 14:57:55;;;;;;;6.97;3.65;;;21.30;52.50;;;;;;4917775;29;20032;-81
2023/05/12 15:00:21;;;;;;;6.57;3.65;;;21.30;51.70;;;;;;4921674;29;20035;-80
2023/05/12 15:02:47;;;;;;;7.60;3.00;;;21.40;50.40;;;;;;4914561;29;20511;-80
2023/05/12 15:05:13;;;;;;;5.38;2.60;;;21.50;49.80;;;;;;4915910;29;20364;-80
2023/05/12 15:07:39;;;;;;;8.43;3.42;;;21.40;49.50;;;;;;4919980;29;20024;-80
2023/05/12 15:10:05;;;;;;;5.93;2.85;;;21.30;49.30;;;;;;4900279;29;20039;-79
2023/05/12 15:12:31;;;;;;;6.50;3.28;;;21.30;49.70;;;;;;4900476;29;20112;-75
2023/05/12 15:14:59;;;;;;;4.72;2.58;;;21.30;49.70;;;;;;4895871;29;20036;-76
2023/05/12 15:17:26;;;;;;;7.70;4.60;;;21.30;49.50;;;;;;4913944;29;20016;-76
2023/05/12 15:19:54;;;;;;;8.10;4.25;;;21.20;49.60;;;;;;4914718;29;20501;-76
2023/05/12 15:22:19;;;;;;;8.45;4.60;;;21.10;49.80;;;;;;4911983;29;20025;-76
2023/05/12 15:24:45;;;;;;;9.55;4.60;;;21.10;50.30;;;;;;4912028;29;20043;-76
2023/05/12 15:27:11;;;;;;;10.80;5.10;;;21.00;50.70;;;;;;4900561;29;20131;-76
2023/05/12 15:29:38;;;;;;;10.10;4.90;;;20.80;50.80;;;;;;4910494;29;20060;-77
2023/05/12 15:32:04;;;;;;;7.05;4.07;;;20.80;51.10;;;;;;4917510;29;20429;-76
2023/05/12 15:34:29;;;;;;;10.88;4.25;;;20.80;50.70;;;;;;4914283;29;20039;-76
2023/05/12 15:36:55;;;;;;;7.70;4.25;;;20.80;50.90;;;;;;4918079;29;20036;-76
2023/05/12 15:39:21;;;;;;;8.38;4.50;;;20.80;51.00;;;;;;4917690;29;20119;-76
2023/05/12 15:41:49;;;;;;;7.90;4.25;;;20.80;50.90;;;;;;4913343;29;20495;-77
2023/05/12 15:44:15;;;;;;;8.68;5.07;;;20.70;50.80;;;;;;4914291;29;20087;-76
2023/05/12 15:46:41;;;;;;;8.13;4.40;;;20.70;50.80;;;;;;4918910;29;20079;-76
2023/05/12 15:49:07;;;;;;;9.68;3.83;;;20.70;51.00;;;;;;4911992;29;20036;-76
2023/05/12 15:51:35;;;;;;;8.35;3.95;;;20.60;50.90;;;;;;4917321;29;20041;-77
2023/05/12 15:54:04;;;;;;;5.43;3.28;;;20.60;50.80;;;;;;4915750;29;20027;-75
2023/05/12 15:56:30;;;;;;;7.43;4.07;;;20.50;50.80;;;;;;4918644;29;20083;-76
2023/05/12 15:58:56;;;;;;;5.88;3.90;;;20.50;51.20;;;;;;4904757;29;20044;-77
2023/05/12 16:01:23;;;;;;;8.25;4.20;;;20.50;51.50;;;;;;4922036;29;20028;-77
2023/05/12 16:03:50;;;;;;;7.90;3.88;;;20.50;51.50;;;;;;4912941;29;20028;-78
2023/05/12 16:06:15;;;;;;;5.50;3.83;;;20.40;51.90;;;;;;4921012;29;20024;-77
2023/05/12 16:08:41;;;;;;;7.47;3.47;;;20.30;51.40;;;;;;4919485;29;20103;-76
2023/05/12 16:11:06;;;;;;;8.88;4.10;;;20.30;51.20;;;;;;4920320;29;20030;-77
2023/05/12 16:13:32;;;;;;;9.25;4.38;;;20.20;51.50;;;;;;4921602;29;20052;-79
2023/05/12 16:15:58;;;;;;;7.45;3.33;;;20.10;52.40;;;;;;4906390;29;20035;-77
2023/05/12 16:18:24;;;;;;;7.47;3.45;;;20.00;53.00;;;;;;4919675;29;20024;-76
2023/05/12 16:20:49;;;;;;;7.28;3.08;;;19.90;53.00;;;;;;4922324;29;20020;-77
2023/05/12 16:23:15;;;;;;;5.85;2.85;;;19.80;53.50;;;;;;4920227;29;20025;-77
2023/05/12 16:25:41;;;;;;;6.38;3.00;;;19.80;53.80;;;;;;4904471;29;20028;-77
2023/05/12 16:28:07;;;;;;;8.57;3.38;;;19.80;54.20;;;;;;4922139;29;20036;-77
2023/05/12 16:30:32;;;;;;;9.00;2.60;;;19.80;54.50;;;;;;4919981;29;20059;-77
2023/05/12 16:32:58;;;;;;;5.72;2.30;;;19.70;54.00;;;;;;4919835;29;20113;-78
2023/05/12 16:35:24;;;;;;;4.28;2.50;;;19.60;53.50;;;;;;4908088;29;20076;-76
2023/05/12 16:37:49;;;;;;;8.50;2.90;;;19.50;53.70;;;;;;4904417;29;20028;-76
2023/05/12 16:40:15;;;;;;;5.30;2.58;;;19.40;53.70;;;;;;4914155;29;20036;-76
2023/05/12 16:42:41;;;;;;;8.63;3.42;;;19.40;54.20;;;;;;4920067;29;20774;-77
2023/05/12 16:45:07;;;;;;;6.35;3.10;;;19.40;54.70;;;;;;4920653;29;20077;-76
2023/05/12 16:47:34;;;;;;;9.00;3.38;;;19.40;54.80;;;;;;4917626;29;20028;-76
2023/05/12 16:49:59;;;;;;;7.28;3.17;;;19.30;55.00;;;;;;4920646;29;20032;-76
2023/05/12 16:52:25;;;;;;;6.63;3.13;;;19.40;55.70;;;;;;4902659;29;20028;-76
2023/05/12 16:54:51;;;;;;;7.18;3.78;;;19.30;55.60;;;;;;4903693;29;20582;-76
2023/05/12 16:57:17;;;;;;;5.13;3.00;;;19.30;55.50;;;;;;4922490;29;20024;-77
2023/05/12 16:59:43;;;;;;;7.50;3.17;;;19.30;55.50;;;;;;4928353;29;20032;-77
2023/05/12 17:02:09;;;;;;;6.05;3.40;;;19.30;55.90;;;;;;4909212;29;20024;-81
2023/05/12 17:04:35;;;;;;;11.18;3.95;;;19.30;55.50;;;;;;4920775;29;20107;-79
2023/05/12 17:07:01;;;;;;;6.95;3.15;;;19.30;55.80;;;;;;4921172;29;20119;-82
2023/05/12 17:09:26;;;;;;;6.78;2.95;;;19.20;55.50;;;;;;4927020;29;20902;-88
2023/05/12 17:11:52;;;;;;;10.20;2.95;;;19.10;54.90;;;;;;4902935;29;20059;-79
2023/05/12 17:14:18;;;;;;;6.22;2.50;;;19.10;55.70;;;;;;4902228;29;20039;-82